sensor_id;sensor_type;location;lat;lon;timestamp;P1;durP1;ratioP1;P2;durP2;ratioP2
70840;SDS011;58465;51.534;9.934;2023-02-13T00:00:16;15.82;;;7.65;;
70840;SDS011;58465;51.534;9.934;2023-02-13T00:02:44;16.85;;;7.63;;
70840;SDS011;58465;51.534;9.934;2023-02-13T00:05:09;16.35;;;7.65;;
70840;SDS011;58465;51.534;9.934;2023-02-13T00:07:34;17.02;;;7.35;;
70840;SDS011;58465;51.534;9.934;2023-02-13T00:10:00;12.55;;;6.78;;
70840;SDS011;58465;51.534;9.934;2023-02-13T00:12:25;16.42;;;7.57;;
70840;SDS011;58465;51.534;9.934;2023-02-13T00:14:50;14.23;;;7.25;;
70840;SDS011;58465;51.534;9.934;2023-02-13T00:17:16;13.90;;;7.50;;
70840;SDS011;58465;51.534;9.934;2023-02-13T00:19:41;14.57;;;7.43;;
70840;SDS011;58465;51.534;9.934;2023-02-13T00:22:07;16.02;;;7.95;;
70840;SDS011;58465;51.534;9.934;2023-02-13T00:24:33;14.65;;;7.47;;
70840;SDS011;58465;51.534;9.934;2023-02-13T00:26:59;15.73;;;7.70;;
70840;SDS011;58465;51.534;9.934;2023-02-13T00:29:24;13.38;;;7.03;;
70840;SDS011;58465;51.534;9.934;2023-02-13T00:31:49;13.60;;;7.30;;
70840;SDS011;58465;51.534;9.934;2023-02-13T00:34:14;14.73;;;7.22;;
70840;SDS011;58465;51.534;9.934;2023-02-13T00:36:40;13.93;;;7.22;;
70840;SDS011;58465;51.534;9.934;2023-02-13T00:39:05;15.18;;;7.40;;
70840;SDS011;58465;51.534;9.934;2023-02-13T00:41:30;15.98;;;7.95;;
70840;SDS011;58465;51.534;9.934;2023-02-13T00:43:55;14.75;;;7.30;;
70840;SDS011;58465;51.534;9.934;2023-02-13T00:46:21;16.75;;;7.72;;
70840;SDS011;58465;51.534;9.934;2023-02-13T00:48:46;17.63;;;7.57;;
70840;SDS011;58465;51.534;9.934;2023-02-13T00:51:11;20.35;;;7.75;;
70840;SDS011;58465;51.534;9.934;2023-02-13T00:53:37;17.17;;;7.35;;
70840;SDS011;58465;51.534;9.934;2023-02-13T00:56:03;17.05;;;7.72;;
70840;SDS011;58465;51.534;9.934;2023-02-13T00:58:29;15.20;;;7.85;;
70840;SDS011;58465;51.534;9.934;2023-02-13T01:00:55;18.90;;;8.18;;
70840;SDS011;58465;51.534;9.934;2023-02-13T01:03:20;16.35;;;8.02;;
70840;SDS011;58465;51.534;9.934;2023-02-13T01:05:46;15.00;;;7.80;;
70840;SDS011;58465;51.534;9.934;2023-02-13T01:08:12;16.05;;;8.25;;
70840;SDS011;58465;51.534;9.934;2023-02-13T01:10:39;15.13;;;7.72;;
70840;SDS011;58465;51.534;9.934;2023-02-13T01:13:05;16.75;;;8.90;;
70840;SDS011;58465;51.534;9.934;2023-02-13T01:15:31;15.43;;;7.55;;
70840;SDS011;58465;51.534;9.934;2023-02-13T01:17:57;16.83;;;8.63;;
70840;SDS011;58465;51.534;9.934;2023-02-13T01:20:22;16.33;;;8.15;;
70840;SDS011;58465;51.534;9.934;2023-02-13T01:22:48;16.10;;;8.05;;
70840;SDS011;58465;51.534;9.934;2023-02-13T01:25:14;18.27;;;8.73;;
70840;SDS011;58465;51.534;9.934;2023-02-13T01:27:39;22.33;;;8.90;;
70840;SDS011;58465;51.534;9.934;2023-02-13T01:30:05;16.67;;;8.35;;
70840;SDS011;58465;51.534;9.934;2023-02-13T01:32:35;17.08;;;8.20;;
70840;SDS011;58465;51.534;9.934;2023-02-13T01:35:01;16.67;;;8.10;;
70840;SDS011;58465;51.534;9.934;2023-02-13T01:37:27;19.88;;;8.77;;
70840;SDS011;58465;51.534;9.934;2023-02-13T01:39:52;19.38;;;9.20;;
70840;SDS011;58465;51.534;9.934;2023-02-13T01:42:23;16.80;;;8.18;;
70840;SDS011;58465;51.534;9.934;2023-02-13T01:44:51;20.73;;;8.40;;
70840;SDS011;58465;51.534;9.934;2023-02-13T01:47:38;19.58;;;9.07;;
70840;SDS011;58465;51.534;9.934;2023-02-13T01:53:11;19.70;;;8.77;;
70840;SDS011;58465;51.534;9.934;2023-02-13T01:55:50;18.65;;;7.80;;
70840;SDS011;58465;51.534;9.934;2023-02-13T01:58:29;18.00;;;8.70;;
70840;SDS011;58465;51.534;9.934;2023-02-13T02:00:58;19.30;;;9.07;;
70840;SDS011;58465;51.534;9.934;2023-02-13T02:03:29;20.30;;;9.55;;
70840;SDS011;58465;51.534;9.934;2023-02-13T02:05:59;20.90;;;9.25;;
70840;SDS011;58465;51.534;9.934;2023-02-13T02:08:26;18.92;;;9.35;;
70840;SDS011;58465;51.534;9.934;2023-02-13T02:10:52;17.77;;;9.02;;
70840;SDS011;58465;51.534;9.934;2023-02-13T02:13:20;16.20;;;8.40;;
70840;SDS011;58465;51.534;9.934;2023-02-13T02:19:10;18.55;;;8.88;;
70840;SDS011;58465;51.534;9.934;2023-02-13T02:35:15;16.55;;;8.10;;
70840;SDS011;58465;51.534;9.934;2023-02-13T02:41:13;21.85;;;9.38;;
70840;SDS011;58465;51.534;9.934;2023-02-13T02:47:01;22.00;;;10.65;;
70840;SDS011;58465;51.534;9.934;2023-02-13T02:49:49;22.23;;;11.65;;
70840;SDS011;58465;51.534;9.934;2023-02-13T02:52:26;26.15;;;12.88;;
70840;SDS011;58465;51.534;9.934;2023-02-13T02:55:00;23.42;;;11.98;;
70840;SDS011;58465;51.534;9.934;2023-02-13T02:57:33;21.35;;;10.85;;
70840;SDS011;58465;51.534;9.934;2023-02-13T03:00:22;18.17;;;8.70;;
70840;SDS011;58465;51.534;9.934;2023-02-13T03:03:11;17.70;;;8.95;;
70840;SDS011;58465;51.534;9.934;2023-02-13T03:06:00;13.13;;;6.60;;
70840;SDS011;58465;51.534;9.934;2023-02-13T03:08:38;12.15;;;6.10;;
70840;SDS011;58465;51.534;9.934;2023-02-13T03:11:24;11.88;;;6.13;;
70840;SDS011;58465;51.534;9.934;2023-02-13T03:14:09;10.98;;;5.65;;
70840;SDS011;58465;51.534;9.934;2023-02-13T03:16:37;11.27;;;4.95;;
70840;SDS011;58465;51.534;9.934;2023-02-13T03:22:21;7.22;;;4.13;;
70840;SDS011;58465;51.534;9.934;2023-02-13T03:25:17;6.43;;;3.63;;
70840;SDS011;58465;51.534;9.934;2023-02-13T03:28:17;6.03;;;3.45;;
70840;SDS011;58465;51.534;9.934;2023-02-13T03:31:13;4.00;;;2.45;;
70840;SDS011;58465;51.534;9.934;2023-02-13T03:33:56;5.53;;;2.92;;
70840;SDS011;58465;51.534;9.934;2023-02-13T03:36:32;5.25;;;2.72;;
70840;SDS011;58465;51.534;9.934;2023-02-13T03:42:30;7.50;;;3.08;;
70840;SDS011;58465;51.534;9.934;2023-02-13T03:45:02;7.65;;;2.60;;
70840;SDS011;58465;51.534;9.934;2023-02-13T03:50:20;3.90;;;2.45;;
70840;SDS011;58465;51.534;9.934;2023-02-13T03:52:48;5.97;;;3.03;;
70840;SDS011;58465;51.534;9.934;2023-02-13T03:55:30;4.78;;;2.67;;
70840;SDS011;58465;51.534;9.934;2023-02-13T03:58:22;3.63;;;2.30;;
70840;SDS011;58465;51.534;9.934;2023-02-13T04:01:10;3.60;;;1.92;;
70840;SDS011;58465;51.534;9.934;2023-02-13T04:03:44;3.45;;;2.17;;
70840;SDS011;58465;51.534;9.934;2023-02-13T04:06:15;3.00;;;1.95;;
70840;SDS011;58465;51.534;9.934;2023-02-13T04:08:44;3.15;;;1.95;;
70840;SDS011;58465;51.534;9.934;2023-02-13T04:14:00;2.85;;;1.92;;
70840;SDS011;58465;51.534;9.934;2023-02-13T04:16:33;3.85;;;2.10;;
70840;SDS011;58465;51.534;9.934;2023-02-13T04:19:02;3.70;;;2.00;;
70840;SDS011;58465;51.534;9.934;2023-02-13T04:21:33;3.25;;;1.92;;
70840;SDS011;58465;51.534;9.934;2023-02-13T04:24:04;2.30;;;1.60;;
70840;SDS011;58465;51.534;9.934;2023-02-13T04:26:32;4.55;;;2.33;;
70840;SDS011;58465;51.534;9.934;2023-02-13T04:29:02;3.67;;;2.20;;
70840;SDS011;58465;51.534;9.934;2023-02-13T04:31:27;3.80;;;1.95;;
70840;SDS011;58465;51.534;9.934;2023-02-13T04:33:52;3.65;;;2.00;;
70840;SDS011;58465;51.534;9.934;2023-02-13T04:36:18;4.93;;;2.85;;
70840;SDS011;58465;51.534;9.934;2023-02-13T04:38:43;3.65;;;1.80;;
70840;SDS011;58465;51.534;9.934;2023-02-13T04:41:09;1.88;;;1.30;;
70840;SDS011;58465;51.534;9.934;2023-02-13T04:43:34;4.05;;;1.40;;
70840;SDS011;58465;51.534;9.934;2023-02-13T04:46:00;1.95;;;1.15;;
70840;SDS011;58465;51.534;9.934;2023-02-13T04:48:25;1.52;;;1.23;;
70840;SDS011;58465;51.534;9.934;2023-02-13T04:50:50;1.70;;;1.20;;
70840;SDS011;58465;51.534;9.934;2023-02-13T04:53:16;3.35;;;1.33;;
70840;SDS011;58465;51.534;9.934;2023-02-13T04:55:41;1.58;;;1.13;;
70840;SDS011;58465;51.534;9.934;2023-02-13T04:58:07;1.67;;;1.10;;
70840;SDS011;58465;51.534;9.934;2023-02-13T05:00:32;1.10;;;1.00;;
70840;SDS011;58465;51.534;9.934;2023-02-13T05:03:07;1.10;;;1.00;;
70840;SDS011;58465;51.534;9.934;2023-02-13T05:05:36;1.75;;;1.08;;
70840;SDS011;58465;51.534;9.934;2023-02-13T05:08:03;1.67;;;1.10;;
70840;SDS011;58465;51.534;9.934;2023-02-13T05:10:28;1.63;;;1.20;;
70840;SDS011;58465;51.534;9.934;2023-02-13T05:12:54;1.83;;;1.42;;
70840;SDS011;58465;51.534;9.934;2023-02-13T05:15:19;2.85;;;1.73;;
70840;SDS011;58465;51.534;9.934;2023-02-13T05:17:45;2.58;;;1.35;;
70840;SDS011;58465;51.534;9.934;2023-02-13T05:20:11;1.83;;;1.40;;
70840;SDS011;58465;51.534;9.934;2023-02-13T05:22:42;2.15;;;1.30;;
70840;SDS011;58465;51.534;9.934;2023-02-13T05:25:28;2.38;;;1.27;;
70840;SDS011;58465;51.534;9.934;2023-02-13T05:27:54;1.95;;;1.27;;
70840;SDS011;58465;51.534;9.934;2023-02-13T05:30:19;2.47;;;1.40;;
70840;SDS011;58465;51.534;9.934;2023-02-13T05:32:45;1.67;;;1.20;;
70840;SDS011;58465;51.534;9.934;2023-02-13T05:35:10;3.55;;;1.10;;
70840;SDS011;58465;51.534;9.934;2023-02-13T05:37:35;2.05;;;1.45;;
70840;SDS011;58465;51.534;9.934;2023-02-13T05:40:01;1.70;;;1.45;;
70840;SDS011;58465;51.534;9.934;2023-02-13T05:42:26;2.03;;;1.27;;
70840;SDS011;58465;51.534;9.934;2023-02-13T05:44:51;2.75;;;1.63;;
70840;SDS011;58465;51.534;9.934;2023-02-13T05:47:17;3.10;;;1.65;;
70840;SDS011;58465;51.534;9.934;2023-02-13T05:49:42;3.30;;;2.20;;
70840;SDS011;58465;51.534;9.934;2023-02-13T05:52:07;3.60;;;2.25;;
70840;SDS011;58465;51.534;9.934;2023-02-13T05:54:32;3.63;;;2.17;;
70840;SDS011;58465;51.534;9.934;2023-02-13T05:56:58;6.03;;;2.92;;
70840;SDS011;58465;51.534;9.934;2023-02-13T05:59:23;3.13;;;1.98;;
70840;SDS011;58465;51.534;9.934;2023-02-13T06:01:48;3.90;;;2.30;;
70840;SDS011;58465;51.534;9.934;2023-02-13T06:04:14;3.70;;;2.10;;
70840;SDS011;58465;51.534;9.934;2023-02-13T06:06:39;7.88;;;2.15;;
70840;SDS011;58465;51.534;9.934;2023-02-13T06:09:04;3.08;;;1.85;;
70840;SDS011;58465;51.534;9.934;2023-02-13T06:11:29;3.28;;;1.77;;
70840;SDS011;58465;51.534;9.934;2023-02-13T06:13:55;9.48;;;3.28;;
70840;SDS011;58465;51.534;9.934;2023-02-13T06:16:20;4.82;;;1.95;;
70840;SDS011;58465;51.534;9.934;2023-02-13T06:18:46;5.35;;;1.90;;
70840;SDS011;58465;51.534;9.934;2023-02-13T06:21:12;9.35;;;4.63;;
70840;SDS011;58465;51.534;9.934;2023-02-13T06:23:37;2.13;;;1.63;;
70840;SDS011;58465;51.534;9.934;2023-02-13T06:26:03;2.85;;;1.65;;
70840;SDS011;58465;51.534;9.934;2023-02-13T06:28:32;4.22;;;1.70;;
70840;SDS011;58465;51.534;9.934;2023-02-13T06:30:58;2.38;;;1.55;;
70840;SDS011;58465;51.534;9.934;2023-02-13T06:33:23;2.47;;;1.70;;
70840;SDS011;58465;51.534;9.934;2023-02-13T06:35:48;2.17;;;1.48;;
70840;SDS011;58465;51.534;9.934;2023-02-13T06:38:14;2.65;;;1.48;;
70840;SDS011;58465;51.534;9.934;2023-02-13T06:40:42;3.13;;;1.80;;
70840;SDS011;58465;51.534;9.934;2023-02-13T06:43:08;3.78;;;1.80;;
70840;SDS011;58465;51.534;9.934;2023-02-13T06:45:33;3.70;;;1.63;;
70840;SDS011;58465;51.534;9.934;2023-02-13T06:47:58;2.80;;;1.98;;
70840;SDS011;58465;51.534;9.934;2023-02-13T06:50:24;2.13;;;1.60;;
70840;SDS011;58465;51.534;9.934;2023-02-13T06:52:49;3.30;;;2.00;;
70840;SDS011;58465;51.534;9.934;2023-02-13T06:55:16;3.20;;;1.52;;
70840;SDS011;58465;51.534;9.934;2023-02-13T06:57:42;1.98;;;1.33;;
70840;SDS011;58465;51.534;9.934;2023-02-13T07:00:08;2.63;;;1.60;;
70840;SDS011;58465;51.534;9.934;2023-02-13T07:02:37;3.97;;;1.50;;
70840;SDS011;58465;51.534;9.934;2023-02-13T07:05:03;3.03;;;1.63;;
70840;SDS011;58465;51.534;9.934;2023-02-13T07:07:31;2.45;;;1.70;;
70840;SDS011;58465;51.534;9.934;2023-02-13T07:09:57;3.53;;;1.70;;
70840;SDS011;58465;51.534;9.934;2023-02-13T07:12:22;2.95;;;1.60;;
70840;SDS011;58465;51.534;9.934;2023-02-13T07:14:48;2.88;;;1.80;;
70840;SDS011;58465;51.534;9.934;2023-02-13T07:17:13;4.00;;;1.90;;
70840;SDS011;58465;51.534;9.934;2023-02-13T07:19:41;3.08;;;1.85;;
70840;SDS011;58465;51.534;9.934;2023-02-13T07:22:07;2.38;;;1.35;;
70840;SDS011;58465;51.534;9.934;2023-02-13T07:24:32;2.85;;;1.73;;
70840;SDS011;58465;51.534;9.934;2023-02-13T07:26:59;2.15;;;1.60;;
70840;SDS011;58465;51.534;9.934;2023-02-13T07:29:24;1.83;;;1.33;;
70840;SDS011;58465;51.534;9.934;2023-02-13T07:31:50;3.28;;;1.70;;
70840;SDS011;58465;51.534;9.934;2023-02-13T07:34:15;2.13;;;1.60;;
70840;SDS011;58465;51.534;9.934;2023-02-13T07:36:40;3.28;;;1.90;;
70840;SDS011;58465;51.534;9.934;2023-02-13T07:39:05;2.53;;;1.52;;
70840;SDS011;58465;51.534;9.934;2023-02-13T07:41:31;2.42;;;1.50;;
70840;SDS011;58465;51.534;9.934;2023-02-13T07:43:56;2.83;;;1.70;;
70840;SDS011;58465;51.534;9.934;2023-02-13T07:46:21;2.42;;;1.60;;
70840;SDS011;58465;51.534;9.934;2023-02-13T07:48:47;2.13;;;1.35;;
70840;SDS011;58465;51.534;9.934;2023-02-13T07:51:12;3.25;;;1.73;;
70840;SDS011;58465;51.534;9.934;2023-02-13T07:53:37;2.58;;;1.63;;
70840;SDS011;58465;51.534;9.934;2023-02-13T07:56:06;2.33;;;1.50;;
70840;SDS011;58465;51.534;9.934;2023-02-13T07:58:32;2.75;;;1.40;;
70840;SDS011;58465;51.534;9.934;2023-02-13T08:00:58;2.70;;;1.35;;
70840;SDS011;58465;51.534;9.934;2023-02-13T08:03:30;1.92;;;1.60;;
70840;SDS011;58465;51.534;9.934;2023-02-13T08:05:55;2.08;;;1.40;;
70840;SDS011;58465;51.534;9.934;2023-02-13T08:08:20;2.97;;;1.48;;
70840;SDS011;58465;51.534;9.934;2023-02-13T08:10:45;2.30;;;1.40;;
70840;SDS011;58465;51.534;9.934;2023-02-13T08:13:29;5.07;;;1.58;;
70840;SDS011;58465;51.534;9.934;2023-02-13T08:15:56;2.40;;;1.40;;
70840;SDS011;58465;51.534;9.934;2023-02-13T08:18:21;2.50;;;1.60;;
70840;SDS011;58465;51.534;9.934;2023-02-13T08:20:46;2.70;;;1.50;;
70840;SDS011;58465;51.534;9.934;2023-02-13T08:23:12;6.95;;;1.45;;
70840;SDS011;58465;51.534;9.934;2023-02-13T08:25:37;3.70;;;1.60;;
70840;SDS011;58465;51.534;9.934;2023-02-13T08:28:03;2.75;;;1.70;;
70840;SDS011;58465;51.534;9.934;2023-02-13T08:30:29;3.47;;;2.42;;
70840;SDS011;58465;51.534;9.934;2023-02-13T08:32:54;2.97;;;1.90;;
70840;SDS011;58465;51.534;9.934;2023-02-13T08:35:19;2.90;;;1.65;;
70840;SDS011;58465;51.534;9.934;2023-02-13T08:37:46;3.58;;;2.00;;
70840;SDS011;58465;51.534;9.934;2023-02-13T08:40:12;2.95;;;1.80;;
70840;SDS011;58465;51.534;9.934;2023-02-13T08:42:37;2.85;;;1.75;;
70840;SDS011;58465;51.534;9.934;2023-02-13T08:45:03;3.00;;;1.85;;
70840;SDS011;58465;51.534;9.934;2023-02-13T08:47:29;3.97;;;1.77;;
70840;SDS011;58465;51.534;9.934;2023-02-13T08:49:54;3.63;;;2.00;;
70840;SDS011;58465;51.534;9.934;2023-02-13T08:52:20;3.78;;;1.67;;
70840;SDS011;58465;51.534;9.934;2023-02-13T08:54:45;3.35;;;2.20;;
70840;SDS011;58465;51.534;9.934;2023-02-13T08:57:10;6.18;;;2.10;;
70840;SDS011;58465;51.534;9.934;2023-02-13T08:59:35;6.15;;;2.50;;
70840;SDS011;58465;51.534;9.934;2023-02-13T09:02:01;4.68;;;2.20;;
70840;SDS011;58465;51.534;9.934;2023-02-13T09:04:27;4.80;;;2.38;;
70840;SDS011;58465;51.534;9.934;2023-02-13T09:06:52;3.97;;;2.22;;
70840;SDS011;58465;51.534;9.934;2023-02-13T09:09:17;5.55;;;2.85;;
70840;SDS011;58465;51.534;9.934;2023-02-13T09:11:43;4.03;;;1.92;;
70840;SDS011;58465;51.534;9.934;2023-02-13T09:14:08;4.53;;;2.20;;
70840;SDS011;58465;51.534;9.934;2023-02-13T09:16:34;3.67;;;2.08;;
70840;SDS011;58465;51.534;9.934;2023-02-13T09:18:59;5.68;;;2.83;;
70840;SDS011;58465;51.534;9.934;2023-02-13T09:21:25;4.10;;;2.50;;
70840;SDS011;58465;51.534;9.934;2023-02-13T09:23:50;3.97;;;2.25;;
70840;SDS011;58465;51.534;9.934;2023-02-13T09:26:17;4.07;;;2.00;;
70840;SDS011;58465;51.534;9.934;2023-02-13T09:28:43;4.88;;;2.75;;
70840;SDS011;58465;51.534;9.934;2023-02-13T09:31:10;6.85;;;2.10;;
70840;SDS011;58465;51.534;9.934;2023-02-13T09:33:39;4.88;;;2.42;;
70840;SDS011;58465;51.534;9.934;2023-02-13T09:36:09;3.78;;;2.22;;
70840;SDS011;58465;51.534;9.934;2023-02-13T09:38:37;4.25;;;2.28;;
70840;SDS011;58465;51.534;9.934;2023-02-13T09:41:04;6.55;;;2.67;;
70840;SDS011;58465;51.534;9.934;2023-02-13T09:43:35;5.75;;;2.70;;
70840;SDS011;58465;51.534;9.934;2023-02-13T09:46:09;6.07;;;3.17;;
70840;SDS011;58465;51.534;9.934;2023-02-13T09:48:39;5.68;;;3.28;;
70840;SDS011;58465;51.534;9.934;2023-02-13T09:51:08;7.53;;;3.25;;
70840;SDS011;58465;51.534;9.934;2023-02-13T09:53:39;7.22;;;3.10;;
70840;SDS011;58465;51.534;9.934;2023-02-13T09:56:17;7.43;;;3.15;;
70840;SDS011;58465;51.534;9.934;2023-02-13T09:58:48;6.32;;;3.30;;
70840;SDS011;58465;51.534;9.934;2023-02-13T10:01:31;6.78;;;3.60;;
70840;SDS011;58465;51.534;9.934;2023-02-13T10:04:10;8.32;;;3.20;;
70840;SDS011;58465;51.534;9.934;2023-02-13T10:06:46;7.25;;;3.30;;
70840;SDS011;58465;51.534;9.934;2023-02-13T10:09:26;7.32;;;3.60;;
70840;SDS011;58465;51.534;9.934;2023-02-13T10:15:41;6.65;;;3.55;;
70840;SDS011;58465;51.534;9.934;2023-02-13T10:18:32;6.80;;;3.85;;
70840;SDS011;58465;51.534;9.934;2023-02-13T10:21:05;8.00;;;3.20;;
70840;SDS011;58465;51.534;9.934;2023-02-13T10:23:39;15.15;;;5.72;;
70840;SDS011;58465;51.534;9.934;2023-02-13T10:26:15;17.45;;;4.97;;
70840;SDS011;58465;51.534;9.934;2023-02-13T10:31:43;13.15;;;5.13;;
70840;SDS011;58465;51.534;9.934;2023-02-13T10:34:13;8.35;;;4.13;;
70840;SDS011;58465;51.534;9.934;2023-02-13T10:36:41;8.65;;;4.13;;
70840;SDS011;58465;51.534;9.934;2023-02-13T10:39:23;11.52;;;4.97;;
70840;SDS011;58465;51.534;9.934;2023-02-13T10:41:53;9.80;;;4.90;;
70840;SDS011;58465;51.534;9.934;2023-02-13T11:01:48;7.65;;;4.55;;
70840;SDS011;58465;51.534;9.934;2023-02-13T11:04:20;12.77;;;5.50;;
70840;SDS011;58465;51.534;9.934;2023-02-13T11:06:55;10.82;;;5.15;;
70840;SDS011;58465;51.534;9.934;2023-02-13T11:09:26;16.02;;;8.05;;
70840;SDS011;58465;51.534;9.934;2023-02-13T11:11:53;12.90;;;5.70;;
70840;SDS011;58465;51.534;9.934;2023-02-13T11:14:20;9.68;;;5.10;;
70840;SDS011;58465;51.534;9.934;2023-02-13T11:19:19;10.77;;;5.07;;
70840;SDS011;58465;51.534;9.934;2023-02-13T11:21:48;13.55;;;5.82;;
70840;SDS011;58465;51.534;9.934;2023-02-13T11:24:22;10.13;;;5.40;;
70840;SDS011;58465;51.534;9.934;2023-02-13T11:27:00;10.10;;;5.32;;
70840;SDS011;58465;51.534;9.934;2023-02-13T11:29:33;19.50;;;9.55;;
70840;SDS011;58465;51.534;9.934;2023-02-13T11:32:01;9.77;;;5.63;;
70840;SDS011;58465;51.534;9.934;2023-02-13T11:34:29;10.77;;;5.43;;
70840;SDS011;58465;51.534;9.934;2023-02-13T11:39:36;10.25;;;5.60;;
70840;SDS011;58465;51.534;9.934;2023-02-13T11:42:02;11.00;;;5.28;;
70840;SDS011;58465;51.534;9.934;2023-02-13T11:44:29;9.52;;;5.32;;
70840;SDS011;58465;51.534;9.934;2023-02-13T11:46:56;13.30;;;4.82;;
70840;SDS011;58465;51.534;9.934;2023-02-13T11:49:27;9.85;;;5.50;;
70840;SDS011;58465;51.534;9.934;2023-02-13T11:52:01;16.08;;;8.80;;
70840;SDS011;58465;51.534;9.934;2023-02-13T11:56:58;9.10;;;5.05;;
70840;SDS011;58465;51.534;9.934;2023-02-13T11:59:25;10.25;;;5.65;;
70840;SDS011;58465;51.534;9.934;2023-02-13T12:02:00;11.75;;;6.10;;
70840;SDS011;58465;51.534;9.934;2023-02-13T12:04:28;11.25;;;5.57;;
70840;SDS011;58465;51.534;9.934;2023-02-13T12:06:57;9.10;;;4.97;;
70840;SDS011;58465;51.534;9.934;2023-02-13T12:09:30;9.07;;;5.28;;
70840;SDS011;58465;51.534;9.934;2023-02-13T12:11:57;15.20;;;8.15;;
70840;SDS011;58465;51.534;9.934;2023-02-13T12:14:28;11.18;;;6.05;;
70840;SDS011;58465;51.534;9.934;2023-02-13T12:17:03;10.00;;;5.97;;
70840;SDS011;58465;51.534;9.934;2023-02-13T12:19:37;10.02;;;5.82;;
70840;SDS011;58465;51.534;9.934;2023-02-13T12:22:13;11.57;;;5.88;;
70840;SDS011;58465;51.534;9.934;2023-02-13T12:40:47;9.38;;;6.20;;
70840;SDS011;58465;51.534;9.934;2023-02-13T12:46:13;10.05;;;5.45;;
70840;SDS011;58465;51.534;9.934;2023-02-13T12:57:10;11.38;;;6.53;;
70840;SDS011;58465;51.534;9.934;2023-02-13T13:02:39;11.52;;;6.38;;
70840;SDS011;58465;51.534;9.934;2023-02-13T13:05:31;13.57;;;6.32;;
70840;SDS011;58465;51.534;9.934;2023-02-13T13:19:28;14.05;;;7.28;;
70840;SDS011;58465;51.534;9.934;2023-02-13T13:22:12;13.38;;;7.07;;
70840;SDS011;58465;51.534;9.934;2023-02-13T13:25:25;16.75;;;7.07;;
70840;SDS011;58465;51.534;9.934;2023-02-13T13:28:00;13.02;;;6.65;;
70840;SDS011;58465;51.534;9.934;2023-02-13T13:30:32;13.10;;;7.13;;
70840;SDS011;58465;51.534;9.934;2023-02-13T13:33:03;12.15;;;6.90;;
70840;SDS011;58465;51.534;9.934;2023-02-13T13:35:51;17.67;;;7.50;;
70840;SDS011;58465;51.534;9.934;2023-02-13T13:49:16;12.75;;;6.60;;
70840;SDS011;58465;51.534;9.934;2023-02-13T13:51:45;11.93;;;6.60;;
70840;SDS011;58465;51.534;9.934;2023-02-13T14:07:40;15.02;;;6.82;;
70840;SDS011;58465;51.534;9.934;2023-02-13T14:12:58;12.40;;;6.53;;
70840;SDS011;58465;51.534;9.934;2023-02-13T14:17:57;10.90;;;6.40;;
70840;SDS011;58465;51.534;9.934;2023-02-13T14:23:16;16.05;;;7.47;;
70840;SDS011;58465;51.534;9.934;2023-02-13T14:25:44;12.07;;;6.93;;
70840;SDS011;58465;51.534;9.934;2023-02-13T14:28:23;17.02;;;7.57;;
70840;SDS011;58465;51.534;9.934;2023-02-13T14:30:51;16.23;;;7.10;;
70840;SDS011;58465;51.534;9.934;2023-02-13T14:33:30;14.43;;;7.38;;
70840;SDS011;58465;51.534;9.934;2023-02-13T14:36:06;12.80;;;7.38;;
70840;SDS011;58465;51.534;9.934;2023-02-13T14:38:44;15.52;;;7.75;;
70840;SDS011;58465;51.534;9.934;2023-02-13T14:47:21;13.50;;;7.78;;
70840;SDS011;58465;51.534;9.934;2023-02-13T14:49:54;14.77;;;6.95;;
70840;SDS011;58465;51.534;9.934;2023-02-13T14:52:22;13.07;;;7.38;;
70840;SDS011;58465;51.534;9.934;2023-02-13T14:54:57;15.75;;;7.35;;
70840;SDS011;58465;51.534;9.934;2023-02-13T14:57:30;17.65;;;7.35;;
70840;SDS011;58465;51.534;9.934;2023-02-13T15:00:11;13.98;;;7.03;;
70840;SDS011;58465;51.534;9.934;2023-02-13T15:02:48;11.88;;;6.97;;
70840;SDS011;58465;51.534;9.934;2023-02-13T15:05:19;13.90;;;8.00;;
70840;SDS011;58465;51.534;9.934;2023-02-13T15:07:49;13.73;;;7.50;;
70840;SDS011;58465;51.534;9.934;2023-02-13T15:13:03;14.82;;;7.18;;
70840;SDS011;58465;51.534;9.934;2023-02-13T15:15:30;14.32;;;7.20;;
70840;SDS011;58465;51.534;9.934;2023-02-13T15:18:02;15.95;;;7.00;;
70840;SDS011;58465;51.534;9.934;2023-02-13T15:20:32;14.27;;;6.45;;
70840;SDS011;58465;51.534;9.934;2023-02-13T15:23:00;15.60;;;7.88;;
70840;SDS011;58465;51.534;9.934;2023-02-13T15:25:38;16.63;;;7.30;;
70840;SDS011;58465;51.534;9.934;2023-02-13T15:28:05;15.10;;;7.10;;
70840;SDS011;58465;51.534;9.934;2023-02-13T15:30:33;15.25;;;6.82;;
70840;SDS011;58465;51.534;9.934;2023-02-13T15:33:17;15.93;;;6.93;;
70840;SDS011;58465;51.534;9.934;2023-02-13T15:35:45;13.20;;;6.45;;
70840;SDS011;58465;51.534;9.934;2023-02-13T15:38:18;13.82;;;7.15;;
70840;SDS011;58465;51.534;9.934;2023-02-13T15:40:44;13.48;;;7.63;;
70840;SDS011;58465;51.534;9.934;2023-02-13T15:43:22;13.95;;;6.93;;
70840;SDS011;58465;51.534;9.934;2023-02-13T15:48:44;10.98;;;5.63;;
70840;SDS011;58465;51.534;9.934;2023-02-13T15:51:11;10.82;;;5.93;;
70840;SDS011;58465;51.534;9.934;2023-02-13T15:53:50;15.32;;;7.22;;
70840;SDS011;58465;51.534;9.934;2023-02-13T15:56:15;12.25;;;5.80;;
70840;SDS011;58465;51.534;9.934;2023-02-13T15:58:43;12.07;;;5.82;;
70840;SDS011;58465;51.534;9.934;2023-02-13T16:01:08;15.25;;;8.73;;
70840;SDS011;58465;51.534;9.934;2023-02-13T16:03:35;12.40;;;5.90;;
70840;SDS011;58465;51.534;9.934;2023-02-13T16:06:03;11.75;;;6.07;;
70840;SDS011;58465;51.534;9.934;2023-02-13T16:08:35;13.43;;;6.22;;
70840;SDS011;58465;51.534;9.934;2023-02-13T16:19:32;9.38;;;5.25;;
70840;SDS011;58465;51.534;9.934;2023-02-13T16:22:13;15.23;;;7.45;;
70840;SDS011;58465;51.534;9.934;2023-02-13T16:24:46;10.48;;;5.97;;
70840;SDS011;58465;51.534;9.934;2023-02-13T16:27:14;12.48;;;6.57;;
70840;SDS011;58465;51.534;9.934;2023-02-13T16:29:49;10.32;;;5.60;;
70840;SDS011;58465;51.534;9.934;2023-02-13T16:32:24;10.10;;;4.88;;
70840;SDS011;58465;51.534;9.934;2023-02-13T16:34:52;10.60;;;5.68;;
70840;SDS011;58465;51.534;9.934;2023-02-13T16:37:29;11.73;;;5.72;;
70840;SDS011;58465;51.534;9.934;2023-02-13T16:39:56;14.40;;;5.60;;
70840;SDS011;58465;51.534;9.934;2023-02-13T16:42:45;9.05;;;4.93;;
70840;SDS011;58465;51.534;9.934;2023-02-13T16:45:21;11.05;;;5.53;;
70840;SDS011;58465;51.534;9.934;2023-02-13T16:47:47;11.32;;;5.78;;
70840;SDS011;58465;51.534;9.934;2023-02-13T16:50:22;13.63;;;6.53;;
70840;SDS011;58465;51.534;9.934;2023-02-13T16:52:47;11.95;;;6.22;;
70840;SDS011;58465;51.534;9.934;2023-02-13T16:55:15;12.45;;;6.85;;
70840;SDS011;58465;51.534;9.934;2023-02-13T16:57:41;10.80;;;6.07;;
70840;SDS011;58465;51.534;9.934;2023-02-13T17:00:16;13.55;;;6.55;;
70840;SDS011;58465;51.534;9.934;2023-02-13T17:02:45;12.32;;;6.72;;
70840;SDS011;58465;51.534;9.934;2023-02-13T17:07:45;12.82;;;6.53;;
70840;SDS011;58465;51.534;9.934;2023-02-13T17:12:55;13.45;;;6.72;;
70840;SDS011;58465;51.534;9.934;2023-02-13T17:15:23;17.33;;;7.60;;
70840;SDS011;58465;51.534;9.934;2023-02-13T17:17:52;15.93;;;8.40;;
70840;SDS011;58465;51.534;9.934;2023-02-13T17:20:19;21.13;;;9.63;;
70840;SDS011;58465;51.534;9.934;2023-02-13T17:22:51;21.08;;;10.63;;
70840;SDS011;58465;51.534;9.934;2023-02-13T17:27:52;18.15;;;9.15;;
70840;SDS011;58465;51.534;9.934;2023-02-13T17:30:23;17.27;;;7.80;;
70840;SDS011;58465;51.534;9.934;2023-02-13T17:32:52;11.68;;;6.53;;
70840;SDS011;58465;51.534;9.934;2023-02-13T17:35:22;12.45;;;6.32;;
70840;SDS011;58465;51.534;9.934;2023-02-13T17:37:47;12.02;;;5.70;;
70840;SDS011;58465;51.534;9.934;2023-02-13T17:40:16;10.43;;;5.75;;
70840;SDS011;58465;51.534;9.934;2023-02-13T17:42:44;11.68;;;6.43;;
70840;SDS011;58465;51.534;9.934;2023-02-13T17:45:14;10.43;;;5.72;;
70840;SDS011;58465;51.534;9.934;2023-02-13T17:47:41;14.00;;;6.85;;